Time;durP1;ratioP1;P1;durP2;ratioP2;P2;SDS_P1;SDS_P2;PMS_P1;PMS_P2;Temp;Humidity;BMP_temperature;BMP_pressure;BME280_temperature;BME280_humidity;BME280_pressure;Samples;Min_cycle;Max_cycle;Signal;HPM_P1;HPM_P2
2023/06/12 00:00:54;;;;;;;9.27;7.18;;;;;;;13.25;100.00;98645.50;4157807;28;20409;-71
2023/06/12 00:02:57;;;;;;;11.45;7.53;;;;;;;13.24;100.00;98644.69;4157202;28;20273;-71
2023/06/12 00:04:59;;;;;;;11.38;7.55;;;;;;;13.19;100.00;98643.06;4157663;28;20158;-71
2023/06/12 00:07:04;;;;;;;9.80;8.13;;;;;;;12.98;100.00;98645.72;4157776;28;20073;-71
2023/06/12 00:09:05;;;;;;;8.85;7.65;;;;;;;12.91;100.00;98652.06;4158462;28;20036;-71
2023/06/12 00:11:09;;;;;;;12.10;7.65;;;;;;;12.85;100.00;98644.50;4156374;28;20068;-71
2023/06/12 00:13:10;;;;;;;8.93;6.75;;;;;;;12.78;100.00;98653.56;4157711;28;20084;-71
2023/06/12 00:15:10;;;;;;;10.55;7.15;;;;;;;12.72;100.00;98652.34;4158281;28;20038;-71
2023/06/12 00:17:11;;;;;;;9.85;6.53;;;;;;;12.70;100.00;98649.16;4158992;28;20042;-71
2023/06/12 00:19:11;;;;;;;9.20;6.63;;;;;;;12.64;100.00;98662.59;4158595;28;20042;-71
2023/06/12 00:21:12;;;;;;;8.88;7.35;;;;;;;12.68;100.00;98664.63;4158434;28;20029;-71
2023/06/12 00:23:12;;;;;;;10.52;7.85;;;;;;;12.59;100.00;98662.97;4157726;28;20095;-71
2023/06/12 00:25:12;;;;;;;10.10;7.32;;;;;;;12.46;100.00;98660.91;4158029;28;20041;-71
2023/06/12 00:27:13;;;;;;;10.13;7.68;;;;;;;12.37;100.00;98664.81;4158768;28;20033;-71
2023/06/12 00:29:13;;;;;;;11.75;7.30;;;;;;;12.34;100.00;98664.78;4158382;28;20041;-71
2023/06/12 00:31:15;;;;;;;9.60;6.72;;;;;;;12.32;100.00;98672.69;4158498;28;20037;-71
2023/06/12 00:33:16;;;;;;;8.00;6.60;;;;;;;12.29;100.00;98668.72;4159652;28;20099;-71
2023/06/12 00:35:19;;;;;;;8.77;6.93;;;;;;;12.26;100.00;98672.25;4157857;28;20071;-71
2023/06/12 00:37:19;;;;;;;10.18;7.65;;;;;;;12.21;100.00;98669.84;4157963;28;20335;-71
2023/06/12 00:39:20;;;;;;;8.25;7.35;;;;;;;12.17;100.00;98669.03;4158072;28;20073;-71
2023/06/12 00:41:20;;;;;;;10.00;6.90;;;;;;;12.16;100.00;98675.72;4158202;28;20131;-71
2023/06/12 00:43:20;;;;;;;7.97;6.88;;;;;;;12.16;100.00;98680.47;4157084;28;20157;-71
2023/06/12 00:45:21;;;;;;;8.32;6.95;;;;;;;12.12;100.00;98672.16;4158374;28;20044;-71
2023/06/12 00:47:22;;;;;;;7.88;6.80;;;;;;;12.15;100.00;98673.34;4157999;28;20045;-70
2023/06/12 00:49:22;;;;;;;8.45;6.47;;;;;;;12.22;100.00;98685.28;4158081;28;20107;-71
2023/06/12 00:51:28;;;;;;;10.55;7.15;;;;;;;12.20;100.00;98681.31;4158426;28;20049;-71
2023/06/12 00:53:28;;;;;;;9.02;6.97;;;;;;;12.13;100.00;98675.72;4157347;28;20069;-71
2023/06/12 00:55:32;;;;;;;8.25;6.68;;;;;;;11.98;100.00;98678.34;4157470;28;20064;-71
2023/06/12 00:57:33;;;;;;;11.45;8.25;;;;;;;11.91;100.00;98675.50;4157169;28;20785;-71
2023/06/12 00:59:34;;;;;;;10.35;6.72;;;;;;;11.84;100.00;98671.91;4157941;28;20037;-71
2023/06/12 01:01:36;;;;;;;8.48;7.00;;;;;;;11.79;100.00;98667.47;4158094;28;20687;-71
2023/06/12 01:03:36;;;;;;;9.32;6.80;;;;;;;11.77;100.00;98672.59;4156798;28;20147;-71
2023/06/12 01:05:42;;;;;;;8.98;6.60;;;;;;;11.77;100.00;98669.81;4158122;28;20092;-71
2023/06/12 01:07:50;;;;;;;8.13;7.20;;;;;;;11.78;100.00;98666.66;4158120;28;20033;-71
2023/06/12 01:10:10;;;;;;;9.23;6.88;;;;;;;11.81;100.00;98673.44;4156863;28;20581;-71
2023/06/12 01:12:11;;;;;;;10.18;7.72;;;;;;;11.76;100.00;98671.00;4157100;28;20387;-71
2023/06/12 01:14:16;;;;;;;8.68;7.28;;;;;;;11.73;100.00;98678.09;4156798;28;20285;-71
2023/06/12 01:16:16;;;;;;;11.05;7.95;;;;;;;11.69;100.00;98673.69;4157721;28;20462;-71
2023/06/12 01:18:20;;;;;;;8.93;7.57;;;;;;;11.60;100.00;98668.47;4158203;28;20021;-71
2023/06/12 01:20:21;;;;;;;8.57;7.05;;;;;;;11.52;100.00;98672.34;4157401;28;20104;-71
2023/06/12 01:22:23;;;;;;;10.65;7.30;;;;;;;11.49;100.00;98673.06;4156993;28;20438;-71
2023/06/12 01:24:24;;;;;;;;;;;;;;;11.39;100.00;98682.06;4157386;28;20050;-71
2023/06/12 01:26:56;;;;;;;7.97;6.60;;;;;;;11.35;100.00;98670.97;4157790;28;19917;-71
2023/06/12 01:29:39;;;;;;;8.70;6.55;;;;;;;11.33;100.00;98667.75;4157309;28;20036;-71
2023/06/12 01:32:01;;;;;;;8.15;6.47;;;;;;;11.30;100.00;98679.59;4156674;28;20378;-71
2023/06/12 01:34:34;;;;;;;9.10;7.20;;;;;;;11.34;100.00;98683.22;4140452;28;20062;-71
2023/06/12 01:36:37;;;;;;;10.43;7.10;;;;;;;11.29;100.00;98675.25;4140210;28;20411;-71
2023/06/12 01:38:39;;;;;;;9.95;7.20;;;;;;;11.24;100.00;98681.09;4141871;28;20054;-71
2023/06/12 01:40:41;;;;;;;8.25;6.72;;;;;;;11.17;100.00;98670.75;4141508;28;20042;-71
2023/06/12 01:42:42;;;;;;;10.60;6.80;;;;;;;11.12;100.00;98673.06;4146222;28;20069;-71
2023/06/12 01:44:42;;;;;;;8.55;6.80;;;;;;;11.10;100.00;98675.41;4157624;28;20191;-71
2023/06/12 01:46:42;;;;;;;9.20;7.22;;;;;;;11.06;100.00;98669.03;4157877;28;20400;-71
2023/06/12 01:48:43;;;;;;;11.30;7.63;;;;;;;11.03;100.00;98669.78;4157473;28;20315;-70
2023/06/12 01:50:44;;;;;;;10.07;7.95;;;;;;;11.03;100.00;98680.84;4157320;28;20133;-70
2023/06/12 01:52:44;;;;;;;9.52;7.05;;;;;;;11.01;100.00;98678.47;4156305;28;20179;-70
2023/06/12 01:54:47;;;;;;;11.27;7.60;;;;;;;11.01;100.00;98675.69;4158033;28;20662;-70
2023/06/12 01:56:48;;;;;;;8.82;7.40;;;;;;;11.05;100.00;98670.19;4157328;28;20057;-70
2023/06/12 01:58:49;;;;;;;10.55;8.05;;;;;;;11.08;100.00;98674.97;4157838;28;20409;-70
2023/06/12 02:00:49;;;;;;;10.55;7.82;;;;;;;11.03;100.00;98673.34;4156797;28;20080;-70
2023/06/12 02:02:55;;;;;;;11.38;8.15;;;;;;;10.96;100.00;98674.03;4156662;28;20045;-70
2023/06/12 02:04:55;;;;;;;10.00;7.03;;;;;;;10.91;100.00;98671.59;4157414;28;20041;-70
2023/06/12 02:06:55;;;;;;;11.32;8.30;;;;;;;10.86;100.00;98674.72;4157301;28;20080;-70
2023/06/12 02:08:56;;;;;;;9.40;7.25;;;;;;;10.84;100.00;98663.22;4157682;28;20439;-70
2023/06/12 02:10:56;;;;;;;11.63;8.35;;;;;;;10.76;100.00;98678.13;4157400;28;20133;-70
2023/06/12 02:12:56;;;;;;;13.73;8.63;;;;;;;10.67;100.00;98677.59;4156668;28;20132;-70
2023/06/12 02:14:57;;;;;;;9.73;7.85;;;;;;;10.65;100.00;98677.97;4160082;28;20412;-71
2023/06/12 02:16:57;;;;;;;10.40;7.57;;;;;;;10.63;100.00;98676.75;4160887;28;20059;-71
2023/06/12 02:18:57;;;;;;;9.05;7.43;;;;;;;10.61;100.00;98688.19;4160374;28;20124;-70
2023/06/12 02:20:58;;;;;;;9.07;7.38;;;;;;;10.56;100.00;98674.69;4160007;28;20099;-70
2023/06/12 02:22:58;;;;;;;12.07;8.45;;;;;;;10.54;100.00;98679.78;4159618;28;20465;-70
2023/06/12 02:24:58;;;;;;;11.75;8.63;;;;;;;10.48;100.00;98670.22;4160364;28;20045;-70
2023/06/12 02:26:59;;;;;;;9.50;7.20;;;;;;;10.46;100.00;98682.81;4160052;28;20351;-70
2023/06/12 02:29:08;;;;;;;10.00;7.88;;;;;;;10.41;100.00;98670.09;4160606;28;20041;-70
2023/06/12 02:31:08;;;;;;;10.38;7.95;;;;;;;10.43;100.00;98678.84;4160464;28;20128;-70
2023/06/12 02:33:13;;;;;;;9.70;7.88;;;;;;;10.46;100.00;98677.28;4159535;28;20687;-71
2023/06/12 02:35:13;;;;;;;8.55;7.53;;;;;;;10.44;100.00;98682.41;4159563;28;20111;-71
2023/06/12 02:37:14;;;;;;;11.27;8.10;;;;;;;10.36;100.00;98681.50;4160210;28;20037;-71
2023/06/12 02:39:15;;;;;;;12.52;8.88;;;;;;;10.36;100.00;98698.09;4159963;28;20029;-71
2023/06/12 02:41:15;;;;;;;11.60;8.65;;;;;;;10.41;100.00;98690.25;4160279;28;20124;-70
2023/06/12 02:43:15;;;;;;;9.80;7.95;;;;;;;10.44;100.00;98696.25;4159204;28;20056;-70
2023/06/12 02:45:15;;;;;;;10.13;8.05;;;;;;;10.48;100.00;98695.09;4159881;28;20132;-70
2023/06/12 02:47:18;;;;;;;9.73;7.85;;;;;;;10.64;100.00;98697.72;4160163;28;20045;-70
2023/06/12 02:49:20;;;;;;;10.93;8.52;;;;;;;10.57;100.00;98703.94;4160077;28;20194;-71
2023/06/12 02:51:21;;;;;;;9.25;7.43;;;;;;;10.50;100.00;98701.06;4159404;28;20048;-71
2023/06/12 02:53:21;;;;;;;12.07;8.40;;;;;;;10.43;100.00;98705.72;4158970;28;20045;-71
2023/06/12 02:55:21;;;;;;;12.35;8.60;;;;;;;10.33;100.00;98696.03;4159717;28;20045;-70
2023/06/12 02:57:21;;;;;;;10.35;8.23;;;;;;;10.24;100.00;98693.53;4159948;28;20087;-70
2023/06/12 02:59:23;;;;;;;10.52;7.57;;;;;;;10.20;100.00;98687.13;4159991;28;20044;-70
2023/06/12 03:01:25;;;;;;;10.90;8.05;;;;;;;10.21;100.00;98697.03;4160110;28;20309;-71
2023/06/12 03:03:29;;;;;;;10.55;8.10;;;;;;;10.26;100.00;98701.47;4158883;28;20049;-70
2023/06/12 03:05:29;;;;;;;12.13;7.80;;;;;;;10.28;100.00;98693.63;4159123;28;20045;-71
2023/06/12 03:07:29;;;;;;;8.93;7.57;;;;;;;10.26;100.00;98694.00;4159671;28;20045;-70
2023/06/12 03:09:32;;;;;;;11.18;8.05;;;;;;;10.17;100.00;98698.91;4159654;28;20112;-71
2023/06/12 03:11:32;;;;;;;10.20;7.53;;;;;;;10.08;100.00;98701.94;4158979;28;20068;-71
2023/06/12 03:13:33;;;;;;;14.05;8.38;;;;;;;10.03;100.00;98701.47;4158909;28;20190;-70
2023/06/12 03:15:33;;;;;;;9.50;7.57;;;;;;;9.99;100.00;98701.38;4159397;28;20534;-70
2023/06/12 03:17:34;;;;;;;9.32;7.53;;;;;;;9.99;100.00;98701.38;4159879;28;20132;-70
2023/06/12 03:19:34;;;;;;;9.50;7.35;;;;;;;9.99;100.00;98700.59;4158920;28;20390;-70
2023/06/12 03:21:36;;;;;;;10.88;8.00;;;;;;;9.98;100.00;98699.78;4159322;28;20025;-70
2023/06/12 03:23:36;;;;;;;12.53;8.07;;;;;;;10.09;100.00;98706.31;4158236;28;20567;-70
2023/06/12 03:25:37;;;;;;;8.60;7.25;;;;;;;10.18;100.00;98708.84;4158361;28;20760;-70
2023/06/12 03:27:37;;;;;;;14.48;8.60;;;;;;;10.30;100.00;98707.88;4159596;28;20905;-70
2023/06/12 03:29:37;;;;;;;10.40;8.00;;;;;;;10.31;100.00;98703.94;4159315;28;20041;-70
2023/06/12 03:31:38;;;;;;;11.38;7.57;;;;;;;10.16;100.00;98710.34;4159429;28;20362;-70
2023/06/12 03:33:38;;;;;;;18.75;8.80;;;;;;;10.10;100.00;98712.66;4158161;28;20112;-70
2023/06/12 03:35:40;;;;;;;20.85;10.23;;;;;;;9.94;100.00;98706.44;4158099;28;20045;-70
2023/06/12 03:37:40;;;;;;;21.30;10.35;;;;;;;9.90;100.00;98703.59;4160777;28;20053;-70
2023/06/12 03:39:40;;;;;;;20.02;9.52;;;;;;;9.92;100.00;98717.84;4160270;28;20127;-70
2023/06/12 03:41:52;;;;;;;15.93;9.68;;;;;;;9.92;100.00;98709.56;4159087;28;20045;-70
2023/06/12 03:43:52;;;;;;;16.95;9.32;;;;;;;9.96;100.00;98704.91;4157974;28;20076;-70
2023/06/12 03:45:53;;;;;;;19.85;9.45;;;;;;;10.01;100.00;98715.66;4159016;28;20393;-70
2023/06/12 03:47:53;;;;;;;14.82;8.57;;;;;;;10.02;100.00;98706.19;4158890;28;20349;-70
2023/06/12 03:49:54;;;;;;;15.13;8.43;;;;;;;10.03;100.00;98713.31;4159003;28;20119;-70
2023/06/12 03:51:55;;;;;;;13.00;8.63;;;;;;;9.99;100.00;98712.44;4159343;28;20078;-70
2023/06/12 03:53:55;;;;;;;13.48;8.60;;;;;;;10.06;100.00;98712.56;4158238;28;20056;-70
2023/06/12 03:55:55;;;;;;;10.90;8.18;;;;;;;10.10;100.00;98715.41;4158830;28;20037;-70
2023/06/12 03:57:56;;;;;;;14.98;9.07;;;;;;;10.15;100.00;98726.16;4159224;28;20044;-70
2023/06/12 03:59:56;;;;;;;15.80;9.15;;;;;;;10.28;100.00;98724.03;4158881;28;20072;-70
2023/06/12 04:01:58;;;;;;;16.75;9.20;;;;;;;10.30;100.00;98718.91;4158411;28;20099;-70
2023/06/12 04:03:58;;;;;;;16.23;9.60;;;;;;;10.25;100.00;98728.31;4157696;28;20041;-70
2023/06/12 04:05:59;;;;;;;19.88;9.20;;;;;;;10.33;100.00;98729.22;4158701;28;20041;-70
2023/06/12 04:07:59;;;;;;;16.27;8.75;;;;;;;10.35;100.00;98729.69;4158963;28;20275;-70
2023/06/12 04:09:59;;;;;;;11.30;8.70;;;;;;;10.41;100.00;98740.03;4159037;28;20493;-70
2023/06/12 04:12:00;;;;;;;12.65;8.88;;;;;;;10.40;100.00;98735.69;4158718;28;20102;-70
2023/06/12 04:14:01;;;;;;;15.15;9.27;;;;;;;10.46;100.00;98735.38;4157521;28;20148;-70
2023/06/12 04:16:02;;;;;;;14.73;9.80;;;;;;;10.45;100.00;98731.81;4158968;28;20454;-71
2023/06/12 04:18:04;;;;;;;13.05;9.25;;;;;;;10.50;100.00;98717.66;4158021;28;20385;-71
2023/06/12 04:20:06;;;;;;;12.17;9.10;;;;;;;10.60;100.00;98733.63;4157974;28;20564;-71
2023/06/12 04:22:07;;;;;;;13.30;9.00;;;;;;;10.73;100.00;98730.66;4158383;28;20036;-71
2023/06/12 04:24:15;;;;;;;14.40;9.20;;;;;;;10.81;100.00;98738.69;4158094;28;20017;-71
2023/06/12 04:26:15;;;;;;;13.20;9.73;;;;;;;10.93;100.00;98738.47;4158092;28;20083;-70
2023/06/12 04:28:16;;;;;;;14.48;10.13;;;;;;;11.03;100.00;98737.03;4158155;28;20064;-71
2023/06/12 04:30:17;;;;;;;17.05;10.57;;;;;;;11.12;100.00;98737.53;4157729;28;20029;-71
2023/06/12 04:32:17;;;;;;;15.93;11.23;;;;;;;11.23;100.00;98737.66;4158313;28;20059;-71
2023/06/12 04:34:17;;;;;;;14.25;11.10;;;;;;;11.35;100.00;98743.00;4157507;28;20084;-70
2023/06/12 04:36:18;;;;;;;12.40;9.23;;;;;;;11.44;100.00;98745.47;4158193;28;20545;-71
2023/06/12 04:38:19;;;;;;;13.55;10.48;;;;;;;11.51;100.00;98740.03;4158415;28;20461;-71
2023/06/12 04:40:22;;;;;;;14.40;10.02;;;;;;;11.59;100.00;98755.56;4158397;28;20539;-71
2023/06/12 04:42:25;;;;;;;13.50;10.15;;;;;;;11.66;100.00;98746.50;4158032;28;20041;-70
2023/06/12 04:44:30;;;;;;;12.27;9.77;;;;;;;11.75;100.00;98745.06;4157067;28;21290;-71
2023/06/12 04:46:32;;;;;;;11.90;9.57;;;;;;;11.84;100.00;98741.22;4157392;28;20216;-70
2023/06/12 04:48:32;;;;;;;14.57;10.23;;;;;;;11.95;100.00;98739.34;4158121;28;20041;-70
2023/06/12 04:50:32;;;;;;;15.07;9.98;;;;;;;12.06;100.00;98743.78;4158629;28;20071;-71
2023/06/12 04:52:34;;;;;;;16.83;11.02;;;;;;;12.14;100.00;98732.78;4156622;28;20136;-71
2023/06/12 04:54:41;;;;;;;23.40;10.63;;;;;;;12.17;100.00;98730.06;4158114;28;20466;-71
2023/06/12 04:56:44;;;;;;;16.15;10.90;;;;;;;12.23;100.00;98733.25;4158023;28;20046;-70
2023/06/12 04:58:45;;;;;;;15.80;10.05;;;;;;;12.31;100.00;98735.69;4158116;28;20107;-70
2023/06/12 05:00:47;;;;;;;14.30;10.65;;;;;;;12.38;100.00;98730.22;4157911;28;20489;-71
2023/06/12 05:02:49;;;;;;;20.35;10.52;;;;;;;12.46;100.00;98727.50;4131186;28;20049;-71
2023/06/12 05:04:49;;;;;;;13.98;10.10;;;;;;;12.57;100.00;98731.16;4157626;28;20088;-71
2023/06/12 05:06:51;;;;;;;14.63;10.88;;;;;;;12.67;100.00;98730.44;4157305;28;20049;-71
2023/06/12 05:08:52;;;;;;;17.30;10.95;;;;;;;12.78;100.00;98728.53;4157806;28;20443;-71
2023/06/12 05:10:52;;;;;;;12.93;9.88;;;;;;;12.86;100.00;98735.72;4157913;28;20074;-71
2023/06/12 05:12:53;;;;;;;14.63;9.77;;;;;;;12.97;100.00;98726.66;4156828;28;20486;-71
2023/06/12 05:14:53;;;;;;;18.08;9.63;;;;;;;13.05;100.00;98726.31;4157961;28;20550;-71
2023/06/12 05:16:54;;;;;;;19.25;11.27;;;;;;;13.16;100.00;98737.50;4157362;28;20049;-71
2023/06/12 05:18:55;;;;;;;18.13;10.43;;;;;;;13.23;100.00;98726.44;4159720;28;20045;-71
2023/06/12 05:20:58;;;;;;;19.20;12.48;;;;;;;13.28;100.00;98728.06;4157520;28;20049;-71
2023/06/12 05:22:58;;;;;;;19.20;12.20;;;;;;;13.35;100.00;98733.63;4157008;28;20046;-70
2023/06/12 05:24:58;;;;;;;21.15;11.52;;;;;;;13.42;100.00;98723.34;4157629;28;20068;-70
2023/06/12 05:27:00;;;;;;;20.55;12.63;;;;;;;13.51;100.00;98727.75;4157733;28;20129;-71
2023/06/12 05:29:01;;;;;;;26.20;13.02;;;;;;;13.58;100.00;98736.13;4157821;28;20045;-71
2023/06/12 05:31:03;;;;;;;18.75;11.68;;;;;;;13.65;100.00;98739.72;4156112;28;20049;-71
2023/06/12 05:33:04;;;;;;;19.52;12.88;;;;;;;13.71;100.00;98740.13;4156830;28;20169;-71
2023/06/12 05:35:05;;;;;;;24.15;11.93;;;;;;;13.77;100.00;98722.66;4160934;28;20081;-71
2023/06/12 05:37:05;;;;;;;27.00;13.23;;;;;;;13.86;100.00;98733.41;4158242;28;20045;-71
2023/06/12 05:39:05;;;;;;;20.27;13.07;;;;;;;13.97;100.00;98739.78;4157398;28;20033;-71
2023/06/12 05:41:06;;;;;;;18.30;12.25;;;;;;;14.05;100.00;98726.69;4157579;28;20056;-71
2023/06/12 05:43:06;;;;;;;16.10;11.48;;;;;;;14.14;100.00;98724.31;4155630;28;20371;-71
2023/06/12 05:45:07;;;;;;;21.17;12.02;;;;;;;14.26;100.00;98732.28;4155849;28;20053;-70
2023/06/12 05:47:08;;;;;;;17.83;12.18;;;;;;;14.37;100.00;98732.28;4156464;28;20057;-70
2023/06/12 05:49:08;;;;;;;18.33;11.43;;;;;;;14.41;100.00;98716.41;4158072;28;20087;-71
2023/06/12 05:51:08;;;;;;;19.38;12.57;;;;;;;14.52;100.00;98736.69;4159797;28;20493;-71
2023/06/12 05:53:09;;;;;;;17.90;12.32;;;;;;;14.58;100.00;98731.53;4158612;28;20136;-71
2023/06/12 05:55:09;;;;;;;18.05;12.13;;;;;;;14.65;100.00;98733.53;4159441;28;20041;-71
2023/06/12 05:57:11;;;;;;;16.83;11.02;;;;;;;14.73;100.00;98716.41;4160452;28;20060;-71
2023/06/12 05:59:11;;;;;;;17.90;12.17;;;;;;;14.83;100.00;98720.38;4160510;28;20095;-71
2023/06/12 06:01:16;;;;;;;20.90;11.60;;;;;;;14.94;100.00;98728.69;4160693;28;20033;-71
2023/06/12 06:03:19;;;;;;;18.73;11.43;;;;;;;15.01;100.00;98726.69;4158881;28;20030;-71
2023/06/12 06:05:20;;;;;;;16.05;11.27;;;;;;;15.10;100.00;98717.91;4160882;28;20512;-71
2023/06/12 06:07:21;;;;;;;14.95;10.55;;;;;;;15.21;100.00;98731.81;4161144;28;20132;-71
2023/06/12 06:09:21;;;;;;;16.48;11.07;;;;;;;15.33;100.00;98728.59;4161596;28;20045;-71
2023/06/12 06:11:22;;;;;;;16.42;10.90;;;;;;;15.43;100.00;98722.97;4160519;28;20535;-71
2023/06/12 06:13:22;;;;;;;14.70;10.55;;;;;;;15.57;99.22;98724.91;4159806;28;20152;-71
2023/06/12 06:15:22;;;;;;;16.27;12.20;;;;;;;15.66;100.00;98728.09;4160366;28;20041;-71
2023/06/12 06:17:23;;;;;;;18.25;11.15;;;;;;;15.73;100.00;98724.47;4160540;28;20482;-71
2023/06/12 06:19:24;;;;;;;18.20;11.85;;;;;;;15.80;100.00;98731.97;4160540;28;20406;-71
2023/06/12 06:21:25;;;;;;;12.73;9.48;;;;;;;15.83;99.06;98731.97;4160719;28;20042;-71
2023/06/12 06:23:25;;;;;;;13.32;11.20;;;;;;;15.94;100.00;98735.50;4159969;28;20054;-71
2023/06/12 06:25:28;;;;;;;15.52;11.30;;;;;;;16.05;100.00;98743.00;4160019;28;20041;-71
2023/06/12 06:27:28;;;;;;;;;;;;;;;16.15;100.00;98736.56;4161186;28;20048;-71
2023/06/12 06:29:29;;;;;;;14.85;10.90;;;;;;;16.27;100.00;98741.66;4159878;28;19909;-71
2023/06/12 06:31:30;;;;;;;16.73;11.40;;;;;;;16.35;98.85;98750.78;4160321;28;20504;-71
2023/06/12 06:33:32;;;;;;;16.02;10.23;;;;;;;16.42;98.71;98751.53;4159270;28;20033;-71
2023/06/12 06:35:32;;;;;;;14.60;10.90;;;;;;;16.52;97.54;98758.22;4160725;28;20057;-71
2023/06/12 06:37:32;;;;;;;14.52;10.63;;;;;;;16.55;97.90;98754.63;4161113;28;20482;-71
2023/06/12 06:39:33;;;;;;;15.70;10.25;;;;;;;16.61;96.26;98761.34;4157935;28;20477;-71
2023/06/12 06:41:33;;;;;;;12.20;10.55;;;;;;;16.72;97.58;98762.09;4162750;28;20153;-71
2023/06/12 06:43:33;;;;;;;11.35;9.73;;;;;;;16.82;99.39;98760.41;4159758;28;20052;-71
2023/06/12 06:45:34;;;;;;;13.32;10.52;;;;;;;16.96;99.85;98765.84;4159884;28;20038;-71
2023/06/12 06:47:34;;;;;;;11.07;9.25;;;;;;;17.07;98.53;98763.75;4160064;28;20096;-71
2023/06/12 06:49:35;;;;;;;12.90;9.13;;;;;;;17.19;96.86;98770.81;4160461;28;20339;-71
2023/06/12 06:51:36;;;;;;;11.50;9.98;;;;;;;17.33;95.69;98767.88;4156402;28;20053;-71
2023/06/12 06:53:36;;;;;;;14.18;10.18;;;;;;;17.42;93.61;98770.19;4154696;28;20045;-71
2023/06/12 06:55:37;;;;;;;11.95;9.80;;;;;;;17.48;93.99;98770.53;4149789;28;20069;-71
2023/06/12 06:57:38;;;;;;;14.23;9.73;;;;;;;17.51;93.02;98773.25;4147584;28;20045;-71
2023/06/12 06:59:38;;;;;;;10.65;9.02;;;;;;;17.61;91.24;98777.94;4151096;28;20057;-71
2023/06/12 07:01:39;;;;;;;11.70;8.73;;;;;;;17.68;91.45;98771.47;4153759;28;20503;-71
2023/06/12 07:03:40;;;;;;;9.88;8.70;;;;;;;17.74;91.17;98767.03;4153056;28;20041;-71
2023/06/12 07:05:40;;;;;;;10.00;8.25;;;;;;;17.84;91.47;98774.47;4153737;28;20056;-71
2023/06/12 07:07:41;;;;;;;10.75;8.88;;;;;;;17.91;88.04;98768.00;4158038;28;20045;-71
2023/06/12 07:09:41;;;;;;;9.93;8.07;;;;;;;18.03;90.45;98770.22;4157478;28;20064;-71
2023/06/12 07:11:42;;;;;;;10.57;8.75;;;;;;;18.10;86.64;98770.13;4154866;28;20572;-71
2023/06/12 07:13:42;;;;;;;13.15;8.85;;;;;;;18.14;87.60;98759.69;4151204;28;20038;-71
2023/06/12 07:15:42;;;;;;;10.25;8.32;;;;;;;18.20;87.12;98766.41;4152846;28;20041;-71
2023/06/12 07:17:43;;;;;;;9.77;8.18;;;;;;;18.25;88.77;98763.13;4152988;28;20091;-71
2023/06/12 07:19:43;;;;;;;9.48;8.00;;;;;;;18.33;89.04;98763.81;4154065;28;20482;-71
2023/06/12 07:21:43;;;;;;;11.93;8.38;;;;;;;18.41;89.04;98758.88;4155609;28;20505;-71
2023/06/12 07:23:44;;;;;;;10.77;8.70;;;;;;;18.50;86.74;98768.34;4153805;28;20087;-71
2023/06/12 07:25:44;;;;;;;10.60;7.95;;;;;;;18.61;85.68;98758.97;4158434;28;20069;-71
2023/06/12 07:27:45;;;;;;;9.43;7.40;;;;;;;18.70;85.33;98770.44;4157234;28;20050;-71
2023/06/12 07:29:45;;;;;;;8.13;7.03;;;;;;;18.75;83.19;98765.16;4150260;28;20077;-71
2023/06/12 07:31:47;;;;;;;10.52;7.20;;;;;;;18.90;84.86;98767.72;4151300;28;20077;-71
2023/06/12 07:33:47;;;;;;;9.00;7.63;;;;;;;18.93;82.62;98767.66;4154645;28;20623;-71
2023/06/12 07:35:47;;;;;;;9.38;7.63;;;;;;;18.98;83.72;98753.16;4155697;28;20046;-71
2023/06/12 07:37:49;;;;;;;10.52;8.00;;;;;;;19.08;85.14;98759.78;4151850;28;20057;-71
2023/06/12 07:39:50;;;;;;;9.00;7.70;;;;;;;19.20;85.88;98764.00;4157541;28;20068;-71
2023/06/12 07:41:50;;;;;;;8.90;7.05;;;;;;;19.29;83.12;98758.59;4157874;28;20131;-71
2023/06/12 07:43:51;;;;;;;11.40;7.65;;;;;;;19.38;82.64;98753.22;4155727;28;20091;-71
2023/06/12 07:45:51;;;;;;;9.77;6.95;;;;;;;19.46;79.85;98751.06;4154335;28;20124;-71
2023/06/12 07:47:54;;;;;;;11.13;7.00;;;;;;;19.52;78.22;98758.53;4156308;28;20080;-71
2023/06/12 07:49:55;;;;;;;9.73;6.88;;;;;;;19.58;77.59;98753.25;4151577;28;20433;-71
2023/06/12 07:51:55;;;;;;;10.07;6.93;;;;;;;19.63;78.79;98747.91;4152442;28;20041;-71
2023/06/12 07:53:55;;;;;;;7.95;7.13;;;;;;;19.70;76.98;98757.44;4152203;28;20418;-71
2023/06/12 07:55:56;;;;;;;8.07;7.28;;;;;;;19.79;78.69;98752.81;4156357;28;20056;-71
2023/06/12 07:57:57;;;;;;;7.75;6.95;;;;;;;19.88;81.06;98761.44;4158217;28;20037;-71
2023/06/12 07:59:57;;;;;;;7.90;6.90;;;;;;;19.98;75.49;98762.41;4155194;28;20053;-71
2023/06/12 08:01:58;;;;;;;7.80;6.80;;;;;;;20.09;77.15;98750.94;4155370;28;20044;-71
2023/06/12 08:03:58;;;;;;;9.10;7.13;;;;;;;20.17;78.66;98760.78;4156503;28;20045;-71
2023/06/12 08:05:59;;;;;;;7.68;6.82;;;;;;;20.19;77.45;98747.13;4156586;28;20064;-71
2023/06/12 08:07:59;;;;;;;7.95;6.93;;;;;;;20.26;77.00;98752.56;4158787;28;20594;-71
2023/06/12 08:10:00;;;;;;;9.23;6.68;;;;;;;20.39;76.43;98753.47;4159739;28;20987;-71
2023/06/12 08:12:00;;;;;;;7.82;7.00;;;;;;;20.49;77.53;98746.03;4157454;28;20642;-71
2023/06/12 08:14:00;;;;;;;11.13;6.72;;;;;;;20.58;75.76;98745.41;4154544;28;20033;-71
2023/06/12 08:16:02;;;;;;;8.52;6.53;;;;;;;20.72;75.36;98748.66;4158733;28;20045;-71
2023/06/12 08:18:02;;;;;;;7.35;6.38;;;;;;;20.71;73.42;98749.91;4159171;28;20017;-72
2023/06/12 08:20:09;;;;;;;6.18;5.57;;;;;;;20.60;72.36;98735.31;4157929;28;20460;-72
2023/06/12 08:22:09;;;;;;;7.90;5.80;;;;;;;20.60;67.88;98732.50;4158265;28;20033;-71
2023/06/12 08:24:11;;;;;;;7.28;5.78;;;;;;;20.50;66.18;98736.38;4157967;28;20465;-71
2023/06/12 08:26:11;;;;;;;6.43;5.47;;;;;;;20.38;69.35;98739.84;4158718;28;20369;-71
2023/06/12 08:28:12;;;;;;;7.07;5.60;;;;;;;20.32;67.50;98733.16;4158095;28;20033;-71
2023/06/12 08:30:12;;;;;;;11.05;5.53;;;;;;;20.28;68.85;98721.25;4158377;28;20030;-71
2023/06/12 08:32:13;;;;;;;8.23;5.07;;;;;;;20.22;68.42;98729.38;4158887;28;20037;-71
2023/06/12 08:34:14;;;;;;;9.50;5.18;;;;;;;20.16;64.85;98728.31;4157421;28;20063;-71
2023/06/12 08:36:14;;;;;;;6.78;4.47;;;;;;;20.13;62.40;98729.19;4157645;28;20060;-71
2023/06/12 08:38:15;;;;;;;6.13;4.53;;;;;;;20.22;60.70;98715.34;4157399;28;20506;-71
2023/06/12 08:40:15;;;;;;;6.07;4.60;;;;;;;20.22;61.26;98723.75;4157600;28;20040;-71
2023/06/12 08:42:17;;;;;;;7.00;4.68;;;;;;;20.28;63.29;98721.25;4157422;28;20065;-71
2023/06/12 08:44:21;;;;;;;6.00;4.75;;;;;;;20.29;62.89;98728.44;4156780;28;20060;-71
2023/06/12 08:46:22;;;;;;;7.50;4.70;;;;;;;20.50;60.71;98713.88;4157529;28;20037;-71
2023/06/12 08:48:26;;;;;;;6.00;3.83;;;;;;;20.69;60.53;98710.19;4157549;28;20048;-71
2023/06/12 08:50:28;;;;;;;6.88;4.35;;;;;;;20.88;61.65;98716.94;4157449;28;20045;-71
2023/06/12 08:52:29;;;;;;;5.68;4.32;;;;;;;21.02;57.36;98707.34;4157251;28;20046;-71
2023/06/12 08:54:33;;;;;;;5.30;4.27;;;;;;;21.21;57.63;98709.22;4157108;28;20037;-71
2023/06/12 08:56:34;;;;;;;6.25;4.10;;;;;;;21.45;59.63;98717.44;4157285;28;20053;-72
2023/06/12 08:58:34;;;;;;;6.18;3.97;;;;;;;21.43;55.75;98715.06;4157511;28;20044;-71
2023/06/12 09:00:35;;;;;;;5.18;4.50;;;;;;;21.34;54.01;98711.28;4157202;28;20108;-71
2023/06/12 09:02:35;;;;;;;5.47;4.50;;;;;;;21.40;55.26;98698.25;4157035;28;20084;-71
2023/06/12 09:04:46;;;;;;;9.07;4.28;;;;;;;21.44;53.62;98701.78;4157634;28;20083;-71
2023/06/12 09:06:50;;;;;;;9.02;4.18;;;;;;;21.60;54.55;98707.34;4157339;28;20135;-71
2023/06/12 09:08:52;;;;;;;5.03;4.07;;;;;;;21.73;54.33;98722.22;4158139;28;20037;-71
2023/06/12 09:10:52;;;;;;;9.98;4.00;;;;;;;21.70;52.93;98717.50;4156454;28;20366;-71
2023/06/12 09:12:54;;;;;;;6.38;4.20;;;;;;;21.71;53.34;98707.03;4156536;28;20514;-71
2023/06/12 09:14:54;;;;;;;6.22;3.80;;;;;;;21.76;52.15;98729.78;4157424;28;20520;-71
2023/06/12 09:16:54;;;;;;;7.07;4.05;;;;;;;21.78;52.78;98709.63;4157416;28;20073;-71
2023/06/12 09:18:56;;;;;;;7.68;4.03;;;;;;;21.90;53.47;98717.28;4157234;28;20029;-71
2023/06/12 09:21:05;;;;;;;10.25;3.75;;;;;;;22.02;53.30;98710.09;4157166;28;20389;-71
2023/06/12 09:23:06;;;;;;;5.45;4.32;;;;;;;22.02;52.64;98710.91;4154566;28;20099;-71